Davenport, Arkansas
Current Conditions -  °F | °C
As of 6:56 AM on Friday 19 Dec 2014 (Local Time) from KSRC Reporting Station
Overcast Overcast  
Wind Chill: 36°   Ceiling: 2500
Heat Index: 40°   Visibility: 7mi
Dew Point: 37°   Wind: 6mph
Humidity: 89%   Direction: 30°NNE
Pressure: 30.26"   Gusts: NA
Location:  35.4331°N, 91.7663°W
Report Text: KSRC 191256Z AUTO 03005KT 7SM SCT009 BKN025 OVC050 04/03 A3026 RMK AO2 SLP255 T00440028 TSNO
Loading
Personal Weather Stations






























Interactive Weather Map New forecast layout! Learn more

10-Day Weather Forecast

Advertisements
Track Severe Weather on mobile